Time;durP1;ratioP1;P1;durP2;ratioP2;P2;SDS_P1;SDS_P2;PMS_P1;PMS_P2;Temp;Humidity;BMP_temperature;BMP_pressure;BME280_temperature;BME280_humidity;BME280_pressure;Samples;Min_cycle;Max_cycle;Signal;HPM_P1;HPM_P2
2021/10/05 00:00:10;;;;;;;4.03;1.30;;;13.00;99.90;;;;;;5043686;28;25108;-63
2021/10/05 00:02:35;;;;;;;5.03;1.40;;;13.00;99.90;;;;;;5042996;28;25077;-65
2021/10/05 00:05:01;;;;;;;7.45;1.35;;;13.00;99.90;;;;;;5046055;28;25074;-63
2021/10/05 00:07:27;;;;;;;4.40;1.23;;;13.00;99.90;;;;;;5040035;28;25077;-61
2021/10/05 00:09:52;;;;;;;2.47;1.30;;;13.00;99.90;;;;;;5036839;28;25115;-62
2021/10/05 00:12:18;;;;;;;5.80;1.30;;;13.00;99.90;;;;;;5041459;28;25154;-62
2021/10/05 00:14:45;;;;;;;8.85;2.00;;;13.00;99.90;;;;;;5046898;28;25066;-62
2021/10/05 00:17:10;;;;;;;5.68;1.52;;;13.00;99.90;;;;;;5042540;28;25066;-62
2021/10/05 00:19:36;;;;;;;7.82;2.50;;;13.00;99.90;;;;;;5047628;28;25086;-62
2021/10/05 00:22:03;;;;;;;5.60;1.63;;;12.90;99.90;;;;;;5039850;28;25148;-62
2021/10/05 00:24:28;;;;;;;9.23;2.00;;;12.90;99.90;;;;;;5043275;28;25123;-63
2021/10/05 00:26:54;;;;;;;10.10;2.00;;;12.90;99.90;;;;;;5043049;28;25169;-61
2021/10/05 00:29:19;;;;;;;4.05;1.42;;;12.90;99.90;;;;;;5038048;28;25063;-63
2021/10/05 00:31:45;;;;;;;7.28;1.70;;;13.00;99.90;;;;;;5040047;28;25140;-63
2021/10/05 00:34:10;;;;;;;5.60;1.80;;;13.00;99.90;;;;;;5048785;28;25118;-63
2021/10/05 00:36:36;;;;;;;6.57;2.00;;;12.90;99.90;;;;;;5047388;28;25147;-62
2021/10/05 00:39:02;;;;;;;4.45;1.00;;;12.90;99.90;;;;;;5048687;28;25105;-63
2021/10/05 00:41:27;;;;;;;6.35;1.65;;;12.90;99.90;;;;;;5040471;28;25080;-64
2021/10/05 00:44:00;;;;;;;2.92;1.13;;;12.90;99.90;;;;;;5052223;28;25086;-64
2021/10/05 00:46:26;;;;;;;3.00;1.42;;;12.90;99.90;;;;;;5049744;28;25052;-62
2021/10/05 00:48:53;;;;;;;8.30;1.33;;;12.80;99.90;;;;;;5046697;28;25064;-62
2021/10/05 00:51:20;;;;;;;7.55;1.42;;;12.80;99.90;;;;;;5042331;28;25093;-62
2021/10/05 00:53:45;;;;;;;6.40;1.45;;;12.80;99.90;;;;;;5031858;28;25050;-62
2021/10/05 00:56:11;;;;;;;7.43;1.40;;;12.80;99.90;;;;;;5036885;28;25056;-63
2021/10/05 00:58:38;;;;;;;4.97;1.48;;;12.70;99.90;;;;;;5036763;28;25076;-61
2021/10/05 01:01:03;;;;;;;5.28;1.38;;;12.70;99.90;;;;;;5045792;28;25137;-61
2021/10/05 01:03:29;;;;;;;4.65;1.38;;;12.70;99.90;;;;;;5047415;28;25072;-60
2021/10/05 01:05:54;;;;;;;3.78;1.40;;;12.70;99.90;;;;;;5056100;28;25064;-62
2021/10/05 01:08:21;;;;;;;3.97;1.45;;;12.70;99.90;;;;;;5050328;28;25043;-63
2021/10/05 01:10:47;;;;;;;6.63;1.50;;;12.70;99.90;;;;;;5050492;28;25055;-62
2021/10/05 01:13:12;;;;;;;7.03;1.50;;;12.70;99.90;;;;;;5043653;28;25070;-63
2021/10/05 01:15:38;;;;;;;4.22;1.77;;;12.70;99.90;;;;;;5045757;28;25080;-62
2021/10/05 01:18:04;;;;;;;4.93;1.20;;;12.70;99.90;;;;;;5046820;28;25169;-62
2021/10/05 01:20:31;;;;;;;3.47;1.13;;;12.70;99.90;;;;;;5045343;28;25070;-61
2021/10/05 01:22:56;;;;;;;3.42;1.20;;;12.70;99.90;;;;;;5043810;28;25088;-61
2021/10/05 01:25:22;;;;;;;3.47;1.20;;;12.70;99.90;;;;;;5040787;28;25051;-63
2021/10/05 01:27:52;;;;;;;9.75;1.98;;;12.70;99.90;;;;;;5042321;28;25059;-63
2021/10/05 01:30:19;;;;;;;4.78;1.45;;;12.70;99.90;;;;;;5042601;28;25093;-63
2021/10/05 01:32:46;;;;;;;4.10;1.13;;;12.60;99.90;;;;;;5050141;28;25056;-63
2021/10/05 01:35:13;;;;;;;4.85;1.25;;;12.60;99.90;;;;;;5053870;28;25090;-62
2021/10/05 01:37:39;;;;;;;5.90;1.27;;;12.60;99.90;;;;;;5049742;28;25153;-62
2021/10/05 01:40:08;;;;;;;5.35;1.88;;;12.60;99.90;;;;;;5050145;28;25162;-60
2021/10/05 01:42:35;;;;;;;4.72;1.15;;;12.60;99.90;;;;;;5043246;28;25070;-61
2021/10/05 01:45:00;;;;;;;2.88;1.17;;;12.50;99.90;;;;;;5038223;28;25070;-63
2021/10/05 01:47:26;;;;;;;2.95;1.33;;;12.50;99.90;;;;;;5043206;28;25084;-62
2021/10/05 01:49:52;;;;;;;6.18;1.58;;;12.50;99.90;;;;;;5040120;28;25090;-63
2021/10/05 01:52:17;;;;;;;3.92;1.45;;;12.50;99.90;;;;;;5041604;28;25054;-62
2021/10/05 01:54:43;;;;;;;6.35;1.27;;;12.50;99.90;;;;;;5041516;28;24715;-62
2021/10/05 01:57:08;;;;;;;3.88;1.35;;;12.40;99.90;;;;;;5040728;28;25056;-62
2021/10/05 01:59:34;;;;;;;4.35;1.52;;;12.40;99.90;;;;;;5041678;28;25085;-61
2021/10/05 02:01:59;;;;;;;4.53;1.23;;;12.40;99.90;;;;;;5041175;28;25148;-61
2021/10/05 02:04:25;;;;;;;4.05;1.63;;;12.40;99.90;;;;;;5042110;28;25060;-62
2021/10/05 02:06:51;;;;;;;8.20;1.20;;;12.40;99.90;;;;;;5039661;28;25074;-62
2021/10/05 02:09:16;;;;;;;3.50;1.35;;;12.40;99.90;;;;;;5047906;28;25068;-62
2021/10/05 02:11:42;;;;;;;2.90;1.10;;;12.40;99.90;;;;;;5043235;28;25122;-61
2021/10/05 02:14:08;;;;;;;7.22;1.40;;;12.40;99.90;;;;;;5042675;28;25064;-61
2021/10/05 02:16:34;;;;;;;3.83;1.20;;;12.40;99.90;;;;;;5037436;28;25065;-61
2021/10/05 02:19:03;;;;;;;4.32;1.20;;;12.50;99.90;;;;;;5038840;28;25143;-62
2021/10/05 02:21:29;;;;;;;4.72;1.40;;;12.40;99.90;;;;;;5039041;28;25169;-61
2021/10/05 02:26:40;;;;;;;3.15;1.02;;;12.30;99.90;;;;;;5037976;28;25116;-61
2021/10/05 02:29:06;;;;;;;5.15;1.30;;;12.20;99.90;;;;;;5048913;28;25093;-62
2021/10/05 02:31:32;;;;;;;7.28;1.75;;;12.20;99.90;;;;;;5048190;28;25068;-60
2021/10/05 02:33:58;;;;;;;5.13;1.40;;;12.20;99.90;;;;;;5047462;28;25077;-62
2021/10/05 02:36:24;;;;;;;6.20;1.73;;;12.20;99.90;;;;;;5049205;28;25072;-61
2021/10/05 02:38:50;;;;;;;6.38;1.38;;;12.30;99.90;;;;;;5044802;28;25101;-63
2021/10/05 02:41:15;;;;;;;2.38;1.13;;;12.30;99.90;;;;;;5046027;28;25068;-62
2021/10/05 02:43:41;;;;;;;6.03;1.17;;;12.20;99.90;;;;;;5040361;28;25068;-62
2021/10/05 02:46:07;;;;;;;3.78;1.20;;;12.20;99.90;;;;;;5044490;28;25052;-63
2021/10/05 02:48:32;;;;;;;4.88;1.10;;;12.20;99.90;;;;;;5043305;28;25063;-63
2021/10/05 02:50:58;;;;;;;5.07;1.42;;;12.20;99.90;;;;;;5039022;28;25145;-63
2021/10/05 02:53:24;;;;;;;6.57;1.25;;;12.20;99.90;;;;;;5043437;28;25054;-63
2021/10/05 02:55:49;;;;;;;3.45;1.15;;;12.10;99.90;;;;;;5044159;28;25094;-62
2021/10/05 02:58:16;;;;;;;3.95;1.35;;;12.20;99.90;;;;;;5047054;28;25078;-63
2021/10/05 03:00:44;;;;;;;3.42;1.40;;;12.10;99.90;;;;;;5040964;28;25076;-62
2021/10/05 03:03:10;;;;;;;6.28;1.02;;;12.00;99.90;;;;;;5046641;28;25062;-62
2021/10/05 03:05:36;;;;;;;3.47;1.10;;;12.10;99.90;;;;;;5046833;28;25070;-62
2021/10/05 03:08:05;;;;;;;5.20;1.02;;;12.10;99.90;;;;;;5044358;28;25085;-62
2021/10/05 03:10:31;;;;;;;5.32;1.25;;;12.10;99.90;;;;;;5048613;28;25080;-62
2021/10/05 03:12:56;;;;;;;4.80;1.00;;;12.00;99.90;;;;;;5045767;28;25081;-63
2021/10/05 03:15:22;;;;;;;2.70;0.90;;;12.00;99.90;;;;;;5047471;28;25124;-63
2021/10/05 03:17:47;;;;;;;4.53;1.10;;;12.00;99.90;;;;;;5053477;28;25073;-65
2021/10/05 03:20:13;;;;;;;4.90;1.20;;;12.00;99.90;;;;;;5045561;28;25085;-65
2021/10/05 03:22:38;;;;;;;3.40;0.90;;;12.00;99.90;;;;;;5040702;28;25083;-63
2021/10/05 03:25:06;;;;;;;3.13;1.77;;;12.00;99.90;;;;;;5043440;28;25084;-63
2021/10/05 03:27:32;;;;;;;5.88;1.35;;;12.00;99.90;;;;;;5045570;28;25103;-62
2021/10/05 03:29:58;;;;;;;6.72;1.38;;;12.00;99.90;;;;;;5043317;28;25192;-63
2021/10/05 03:32:24;;;;;;;6.63;1.40;;;12.00;99.90;;;;;;5041673;28;25068;-61
2021/10/05 03:34:49;;;;;;;6.15;1.38;;;12.00;99.90;;;;;;5043118;28;25110;-62
2021/10/05 03:37:15;;;;;;;2.08;1.10;;;12.00;99.90;;;;;;5047608;28;25136;-61
2021/10/05 03:39:41;;;;;;;4.97;1.33;;;12.00;99.90;;;;;;5066668;22;25062;-66
2021/10/05 03:42:06;;;;;;;10.02;1.70;;;11.90;99.90;;;;;;5057709;28;25076;-66
2021/10/05 03:44:33;;;;;;;8.13;1.70;;;11.90;99.90;;;;;;5061515;28;25062;-67
2021/10/05 03:46:59;;;;;;;7.70;1.23;;;11.90;99.90;;;;;;5064466;28;25101;-67
2021/10/05 03:49:25;;;;;;;3.72;1.23;;;11.90;99.90;;;;;;5055039;28;25136;-67
2021/10/05 03:51:51;;;;;;;6.80;1.58;;;11.90;99.90;;;;;;5042958;28;25117;-66
2021/10/05 03:54:16;;;;;;;4.25;1.23;;;11.90;99.90;;;;;;5035875;28;25075;-66
2021/10/05 03:56:42;;;;;;;6.05;1.30;;;11.90;99.90;;;;;;5045889;28;25077;-67
2021/10/05 03:59:08;;;;;;;3.40;1.17;;;11.90;99.90;;;;;;5045661;28;25103;-67
2021/10/05 04:01:34;;;;;;;5.50;1.42;;;11.90;99.90;;;;;;5047040;28;25097;-66
2021/10/05 04:03:59;;;;;;;4.28;1.52;;;11.90;99.90;;;;;;5045929;28;25092;-67
2021/10/05 04:06:25;;;;;;;4.88;1.20;;;11.90;99.90;;;;;;5043919;28;25119;-67
2021/10/05 04:08:50;;;;;;;7.18;1.35;;;11.80;99.90;;;;;;5040523;28;25137;-66
2021/10/05 04:11:16;;;;;;;4.75;1.40;;;11.80;99.90;;;;;;5043510;28;25051;-66
2021/10/05 04:13:41;;;;;;;5.32;1.33;;;11.90;99.90;;;;;;5033982;28;25082;-66
2021/10/05 04:16:07;;;;;;;2.85;1.27;;;11.90;99.90;;;;;;5035805;28;25086;-66
2021/10/05 04:18:33;;;;;;;6.03;1.05;;;11.90;99.90;;;;;;5045256;28;25128;-66
2021/10/05 04:20:59;;;;;;;4.10;1.15;;;11.90;99.90;;;;;;5040141;28;25130;-67
2021/10/05 04:23:24;;;;;;;4.00;1.38;;;11.90;99.90;;;;;;5038028;28;25070;-66
2021/10/05 04:25:50;;;;;;;6.28;1.13;;;11.90;99.90;;;;;;5045158;28;25051;-67
2021/10/05 04:28:16;;;;;;;2.95;1.13;;;11.90;99.90;;;;;;5045653;28;25085;-66
2021/10/05 04:30:41;;;;;;;5.28;1.10;;;11.90;99.90;;;;;;5041948;28;25121;-65
2021/10/05 04:33:07;;;;;;;6.90;1.60;;;11.90;99.90;;;;;;5041481;28;25089;-67
2021/10/05 04:35:32;;;;;;;6.90;1.35;;;11.80;99.90;;;;;;5045052;28;25059;-67
2021/10/05 04:37:58;;;;;;;10.65;1.45;;;11.90;99.90;;;;;;5049348;28;25068;-65
2021/10/05 04:40:24;;;;;;;3.78;1.00;;;11.90;99.90;;;;;;5047038;28;25113;-66
2021/10/05 04:42:50;;;;;;;6.10;1.35;;;11.90;99.90;;;;;;5047360;28;25068;-66
2021/10/05 04:45:15;;;;;;;7.47;1.33;;;11.90;99.90;;;;;;5041164;28;25066;-66
2021/10/05 04:47:41;;;;;;;4.75;1.40;;;11.80;99.90;;;;;;5040090;28;25073;-66
2021/10/05 04:50:08;;;;;;;6.50;2.15;;;11.90;99.90;;;;;;5041414;28;25066;-66
2021/10/05 04:52:34;;;;;;;4.10;1.20;;;11.90;99.90;;;;;;5046427;28;25060;-65
2021/10/05 04:55:01;;;;;;;3.20;1.83;;;11.90;99.90;;;;;;5037157;28;25055;-67
2021/10/05 04:57:27;;;;;;;6.13;1.73;;;11.90;99.90;;;;;;5035309;28;25139;-65
2021/10/05 04:59:52;;;;;;;9.10;1.80;;;11.90;99.90;;;;;;5035324;28;25043;-65
2021/10/05 05:02:18;;;;;;;2.33;1.20;;;11.80;99.90;;;;;;5034534;28;25158;-65
2021/10/05 05:04:44;;;;;;;5.03;1.10;;;11.80;99.90;;;;;;5033334;28;25087;-66
2021/10/05 05:07:09;;;;;;;3.88;1.38;;;11.80;99.90;;;;;;5036606;28;25061;-65
2021/10/05 05:09:35;;;;;;;6.88;1.10;;;11.80;99.90;;;;;;5037993;28;25081;-66
2021/10/05 05:12:00;;;;;;;5.03;1.50;;;11.80;99.90;;;;;;5039723;28;25106;-66
2021/10/05 05:14:26;;;;;;;8.63;1.33;;;11.80;99.90;;;;;;5035892;28;25055;-67
2021/10/05 05:16:52;;;;;;;3.28;1.50;;;11.80;99.90;;;;;;5039524;28;25139;-66
2021/10/05 05:19:17;;;;;;;7.60;1.55;;;11.80;99.90;;;;;;5035106;28;25137;-66
2021/10/05 05:21:43;;;;;;;4.35;1.23;;;11.80;99.90;;;;;;5035124;28;25068;-66
2021/10/05 05:24:09;;;;;;;3.05;0.80;;;11.80;99.90;;;;;;5025956;28;25076;-66
2021/10/05 05:26:34;;;;;;;4.07;1.17;;;11.80;99.90;;;;;;5032213;28;25100;-66
2021/10/05 05:29:00;;;;;;;8.13;1.63;;;11.80;99.90;;;;;;5036945;28;25068;-66
2021/10/05 05:31:26;;;;;;;3.20;1.27;;;11.80;99.90;;;;;;5028060;28;25050;-66
2021/10/05 05:33:51;;;;;;;5.53;0.98;;;11.80;99.90;;;;;;5043231;28;25085;-67
2021/10/05 05:36:17;;;;;;;7.97;1.27;;;11.80;99.90;;;;;;5018492;28;25155;-65
2021/10/05 05:38:43;;;;;;;2.65;0.95;;;11.80;99.90;;;;;;5044271;28;25106;-66
2021/10/05 05:41:08;;;;;;;4.15;1.20;;;11.70;99.90;;;;;;5036458;28;25089;-67
2021/10/05 05:43:34;;;;;;;3.72;1.25;;;11.70;99.90;;;;;;5046683;28;25112;-65
2021/10/05 05:45:59;;;;;;;1.75;1.00;;;11.70;99.90;;;;;;5049222;28;25097;-66
2021/10/05 05:48:26;;;;;;;6.03;1.10;;;11.80;99.90;;;;;;5041864;28;25097;-66
2021/10/05 05:50:52;;;;;;;5.05;1.52;;;11.80;99.90;;;;;;5042040;28;25078;-66
2021/10/05 05:53:18;;;;;;;4.03;1.33;;;11.80;99.90;;;;;;5044157;28;25134;-67
2021/10/05 05:55:44;;;;;;;3.20;1.50;;;11.80;99.90;;;;;;5049571;28;25089;-67
2021/10/05 05:58:15;;;;;;;4.57;1.35;;;11.80;99.90;;;;;;5026196;28;25117;-67
2021/10/05 06:00:42;;;;;;;6.47;1.10;;;11.80;99.90;;;;;;5040203;28;25105;-68
2021/10/05 06:03:10;;;;;;;3.85;1.60;;;11.80;99.90;;;;;;5028533;28;25093;-65
2021/10/05 06:05:35;;;;;;;5.30;1.30;;;11.80;99.90;;;;;;5038367;28;25088;-65
2021/10/05 06:08:01;;;;;;;4.57;1.05;;;11.80;99.90;;;;;;5039845;28;25071;-65
2021/10/05 06:10:27;;;;;;;2.92;1.15;;;11.80;99.90;;;;;;5048894;28;25070;-66
2021/10/05 06:12:53;;;;;;;4.50;1.35;;;11.80;99.90;;;;;;5044191;28;25079;-66
2021/10/05 06:15:20;;;;;;;3.85;1.10;;;11.80;99.90;;;;;;5048889;28;25050;-66
2021/10/05 06:17:46;;;;;;;2.03;1.00;;;11.80;99.90;;;;;;5042521;28;25073;-65
2021/10/05 06:20:13;;;;;;;3.60;1.20;;;11.80;99.90;;;;;;5037824;28;25139;-66
2021/10/05 06:22:39;;;;;;;6.00;1.30;;;11.70;99.90;;;;;;5046001;28;25059;-66
2021/10/05 06:25:07;;;;;;;3.00;1.60;;;11.80;99.90;;;;;;5041113;28;25131;-64
2021/10/05 06:27:33;;;;;;;8.68;1.27;;;11.80;99.90;;;;;;5049854;28;25056;-65
2021/10/05 06:29:58;;;;;;;3.65;1.10;;;11.80;99.90;;;;;;5031147;28;25118;-66
2021/10/05 06:32:25;;;;;;;6.03;1.20;;;11.80;99.90;;;;;;5043503;28;25143;-66
2021/10/05 06:34:51;;;;;;;5.45;1.38;;;11.90;99.90;;;;;;5048657;28;25076;-65
2021/10/05 06:37:17;;;;;;;4.10;1.10;;;11.90;99.90;;;;;;5044249;28;25094;-65
2021/10/05 06:39:43;;;;;;;3.90;1.20;;;11.90;99.90;;;;;;5043797;28;25060;-65
2021/10/05 06:42:09;;;;;;;6.68;1.20;;;12.00;99.90;;;;;;5047576;28;25072;-65
2021/10/05 06:44:34;;;;;;;6.47;1.23;;;12.00;99.90;;;;;;5048532;28;25061;-66
2021/10/05 06:47:00;;;;;;;4.40;1.02;;;12.00;99.90;;;;;;5048883;28;25053;-65
2021/10/05 06:49:26;;;;;;;5.57;1.42;;;12.10;99.90;;;;;;5042626;28;25076;-64
2021/10/05 06:51:52;;;;;;;6.47;1.15;;;12.10;99.90;;;;;;5044729;28;25097;-64
2021/10/05 06:54:17;;;;;;;6.43;1.60;;;12.20;99.90;;;;;;5048252;28;25059;-64
2021/10/05 06:56:43;;;;;;;5.30;1.40;;;12.20;99.90;;;;;;5039089;28;25121;-65
2021/10/05 06:59:09;;;;;;;4.38;1.10;;;12.20;99.90;;;;;;5049081;28;25063;-64
2021/10/05 07:01:34;;;;;;;5.82;1.67;;;12.20;99.90;;;;;;5048189;28;25062;-64
2021/10/05 07:04:00;;;;;;;5.80;1.42;;;12.20;99.90;;;;;;5039769;28;25097;-66
2021/10/05 07:06:26;;;;;;;2.35;1.15;;;12.30;99.90;;;;;;5047567;28;25071;-65
2021/10/05 07:08:52;;;;;;;5.75;1.63;;;12.40;99.90;;;;;;5049100;28;25109;-65
2021/10/05 07:11:17;;;;;;;2.72;1.13;;;12.40;99.90;;;;;;5044260;28;25072;-67
2021/10/05 07:13:43;;;;;;;5.00;1.63;;;12.50;99.90;;;;;;5028958;28;25096;-65
2021/10/05 07:16:09;;;;;;;6.55;1.67;;;12.60;99.90;;;;;;5042791;28;25149;-65
2021/10/05 07:18:35;;;;;;;10.98;1.60;;;12.60;99.90;;;;;;5035892;28;25102;-65
2021/10/05 07:21:02;;;;;;;10.73;1.70;;;12.70;99.90;;;;;;5039850;28;25136;-67
2021/10/05 07:23:28;;;;;;;7.28;1.95;;;12.70;99.90;;;;;;5033737;28;25068;-66
2021/10/05 07:25:53;;;;;;;4.43;1.20;;;12.80;99.90;;;;;;5040163;28;25068;-65
2021/10/05 07:28:19;;;;;;;7.22;1.17;;;12.80;99.90;;;;;;5047806;28;25144;-65
2021/10/05 07:30:46;;;;;;;5.22;1.10;;;12.90;99.90;;;;;;5015356;28;25059;-65
2021/10/05 07:33:12;;;;;;;5.60;1.60;;;12.90;99.90;;;;;;5049800;28;25070;-65
2021/10/05 07:35:38;;;;;;;6.40;1.55;;;13.00;99.90;;;;;;5043496;28;25076;-67
2021/10/05 07:38:04;;;;;;;5.95;1.33;;;13.00;99.90;;;;;;5044047;28;25130;-65
2021/10/05 07:40:30;;;;;;;3.90;1.30;;;13.10;99.90;;;;;;5035806;28;25102;-66
2021/10/05 07:42:58;;;;;;;4.07;1.25;;;13.10;99.90;;;;;;5048282;28;25106;-66
2021/10/05 07:45:25;;;;;;;2.75;0.98;;;13.20;99.90;;;;;;5052060;28;25075;-66
2021/10/05 07:47:51;;;;;;;5.32;1.50;;;13.30;99.90;;;;;;5036281;28;25071;-67
2021/10/05 07:50:18;;;;;;;5.13;1.30;;;13.30;99.90;;;;;;5044524;28;25147;-65
2021/10/05 07:52:43;;;;;;;5.55;1.27;;;13.40;99.90;;;;;;5047030;28;24999;-65
2021/10/05 07:55:09;;;;;;;3.22;1.20;;;13.50;99.90;;;;;;5046979;28;25078;-65
2021/10/05 07:57:35;;;;;;;6.80;1.20;;;13.50;99.90;;;;;;5045243;28;25071;-67
2021/10/05 08:00:00;;;;;;;4.30;0.90;;;13.60;99.90;;;;;;5048142;28;25085;-66
2021/10/05 08:02:26;;;;;;;7.13;1.73;;;13.70;99.90;;;;;;5026095;28;25057;-65
2021/10/05 08:04:53;;;;;;;4.35;1.30;;;13.90;99.90;;;;;;5040058;28;25149;-65
2021/10/05 08:07:19;;;;;;;7.80;1.30;;;14.10;99.90;;;;;;5045149;28;25076;-65
2021/10/05 08:09:45;;;;;;;4.32;1.30;;;14.30;99.90;;;;;;5044546;28;25101;-65
2021/10/05 08:12:10;;;;;;;4.30;1.30;;;14.50;99.90;;;;;;5045629;28;25076;-65
2021/10/05 08:14:36;;;;;;;5.47;1.40;;;14.70;99.90;;;;;;5046023;28;25116;-66
2021/10/05 08:17:03;;;;;;;3.53;1.08;;;15.00;99.90;;;;;;5046915;28;25074;-65
2021/10/05 08:19:29;;;;;;;5.80;1.13;;;15.10;99.90;;;;;;5046768;28;25135;-67
2021/10/05 08:21:55;;;;;;;5.03;1.33;;;15.30;99.90;;;;;;5044382;28;25104;-66
2021/10/05 08:24:22;;;;;;;6.18;1.25;;;15.60;99.90;;;;;;5046909;28;25097;-65
2021/10/05 08:26:47;;;;;;;9.75;1.30;;;15.60;99.90;;;;;;5043762;28;25063;-67
2021/10/05 08:29:14;;;;;;;3.90;1.10;;;15.80;99.90;;;;;;5046705;28;25075;-67
2021/10/05 08:31:39;;;;;;;5.03;1.23;;;15.90;99.90;;;;;;5044543;28;25065;-67
2021/10/05 08:34:05;;;;;;;4.30;1.20;;;16.00;99.90;;;;;;5045404;28;25132;-65
2021/10/05 08:36:31;;;;;;;2.70;1.00;;;16.10;99.90;;;;;;5046433;28;25083;-66
2021/10/05 08:38:56;;;;;;;7.05;1.48;;;16.20;99.90;;;;;;5044301;28;25076;-67
2021/10/05 08:41:22;;;;;;;5.25;1.02;;;16.30;99.90;;;;;;5046413;28;25070;-66
2021/10/05 08:43:50;;;;;;;5.38;1.48;;;16.50;99.90;;;;;;5043214;28;25073;-66
2021/10/05 08:46:16;;;;;;;5.45;1.00;;;16.50;99.90;;;;;;5046658;28;25121;-66
2021/10/05 08:48:42;;;;;;;3.22;1.10;;;16.60;99.90;;;;;;5044794;28;25105;-67
2021/10/05 08:51:09;;;;;;;8.00;1.33;;;16.70;99.90;;;;;;5041219;28;25069;-66
2021/10/05 08:53:37;;;;;;;6.10;0.95;;;16.70;99.90;;;;;;5037312;28;25105;-65
2021/10/05 08:56:05;;;;;;;4.55;1.27;;;16.80;99.90;;;;;;5036028;28;25144;-66
2021/10/05 08:58:31;;;;;;;8.48;1.60;;;16.80;99.90;;;;;;5045500;28;25100;-65
2021/10/05 09:01:07;;;;;;;5.30;1.58;;;16.60;99.90;;;;;;5040107;28;25117;-66
2021/10/05 09:03:32;;;;;;;4.13;1.25;;;16.30;99.90;;;;;;5042041;28;25130;-66
2021/10/05 09:06:09;;;;;;;5.30;1.15;;;16.40;99.90;;;;;;5041002;28;25081;-66
2021/10/05 09:08:39;;;;;;;5.22;0.95;;;16.20;99.90;;;;;;5044758;28;25090;-66
2021/10/05 09:11:05;;;;;;;5.40;1.45;;;16.10;99.90;;;;;;5042525;28;25055;-66
2021/10/05 09:13:36;;;;;;;6.57;1.20;;;16.00;99.90;;;;;;5042779;28;25092;-64
2021/10/05 09:16:02;;;;;;;5.70;0.93;;;16.00;99.90;;;;;;5040562;28;25134;-66
2021/10/05 09:18:28;;;;;;;4.47;1.25;;;16.00;99.90;;;;;;5043942;28;25106;-66
2021/10/05 09:20:53;;;;;;;3.90;1.35;;;16.00;99.90;;;;;;5039976;28;25174;-66
2021/10/05 09:23:19;;;;;;;1.95;1.00;;;16.00;99.90;;;;;;5037017;28;25063;-65
2021/10/05 09:25:50;;;;;;;7.85;1.02;;;15.80;99.90;;;;;;5039013;28;25125;-66
2021/10/05 09:28:27;;;;;;;7.38;1.35;;;15.70;99.90;;;;;;5020404;28;25056;-66
2021/10/05 09:31:02;;;;;;;5.85;1.77;;;15.70;99.90;;;;;;5043362;28;25082;-66
2021/10/05 09:33:29;;;;;;;4.15;1.33;;;15.70;99.90;;;;;;5041761;28;25092;-67
2021/10/05 09:35:54;;;;;;;2.75;0.90;;;15.60;99.90;;;;;;5047085;28;25047;-65
2021/10/05 09:38:22;;;;;;;5.07;1.20;;;15.70;99.90;;;;;;5045972;28;25059;-67
2021/10/05 09:41:07;;;;;;;4.28;1.00;;;15.70;99.90;;;;;;5063103;23;25081;-70
2021/10/05 09:43:33;;;;;;;4.55;1.15;;;15.70;99.90;;;;;;5038231;28;25107;-69
2021/10/05 09:46:15;;;;;;;5.00;0.88;;;15.70;99.90;;;;;;5064692;28;25210;-68
2021/10/05 09:48:42;;;;;;;3.30;0.90;;;15.70;99.90;;;;;;5045083;28;25129;-69
2021/10/05 09:51:16;;;;;;;3.08;1.05;;;15.80;99.90;;;;;;5043953;28;25095;-70
2021/10/05 09:53:42;;;;;;;8.07;1.73;;;15.80;99.90;;;;;;5037103;28;25048;-69
2021/10/05 09:56:12;;;;;;;2.55;1.30;;;15.80;99.90;;;;;;5032097;28;25159;-69
2021/10/05 09:58:38;;;;;;;6.68;1.35;;;15.90;99.90;;;;;;5035366;28;25053;-69
2021/10/05 10:01:04;;;;;;;10.32;1.13;;;16.00;99.90;;;;;;5037662;28;25148;-69
2021/10/05 10:03:31;;;;;;;3.40;1.35;;;16.00;99.90;;;;;;5040624;28;25058;-69
2021/10/05 10:05:58;;;;;;;5.72;1.05;;;16.00;99.90;;;;;;5053656;28;25102;-67
2021/10/05 10:08:25;;;;;;;4.38;1.25;;;16.10;99.90;;;;;;5054088;28;25119;-71
2021/10/05 10:10:50;;;;;;;3.08;1.08;;;16.10;99.90;;;;;;5025357;28;25121;-71
2021/10/05 10:13:19;;;;;;;7.05;1.15;;;16.10;99.90;;;;;;5037725;28;25145;-71
2021/10/05 10:15:46;;;;;;;4.15;1.20;;;16.00;99.90;;;;;;5039473;28;25114;-71
2021/10/05 10:18:19;;;;;;;5.47;1.10;;;16.00;99.90;;;;;;5043519;28;25104;-71
2021/10/05 10:21:03;;;;;;;4.55;1.55;;;16.00;99.90;;;;;;5039713;28;25131;-69
2021/10/05 10:23:30;;;;;;;6.50;1.38;;;15.90;99.90;;;;;;5022036;28;25166;-71
2021/10/05 10:26:08;;;;;;;7.30;1.38;;;16.00;99.90;;;;;;5043074;28;25069;-69
2021/10/05 10:28:37;;;;;;;9.60;1.67;;;15.90;99.90;;;;;;5042962;28;25065;-71
2021/10/05 10:31:06;;;;;;;3.28;1.00;;;15.90;99.90;;;;;;5040848;28;25047;-70
2021/10/05 10:33:46;;;;;;;6.47;1.80;;;15.80;99.90;;;;;;5046606;28;25082;-69
2021/10/05 10:36:13;;;;;;;2.83;1.13;;;15.80;99.90;;;;;;5046855;28;25157;-71
2021/10/05 10:38:43;;;;;;;4.72;1.08;;;15.80;99.90;;;;;;5044508;28;25092;-70
2021/10/05 10:41:18;;;;;;;3.58;1.00;;;15.80;99.90;;;;;;5045718;28;25056;-68
2021/10/05 10:43:52;;;;;;;6.03;1.10;;;15.90;99.90;;;;;;5025202;28;25073;-70
2021/10/05 10:46:31;;;;;;;9.10;1.10;;;15.90;99.90;;;;;;5047994;28;25073;-69
2021/10/05 10:48:58;;;;;;;7.57;1.35;;;15.90;99.90;;;;;;5029976;28;25065;-70
2021/10/05 10:51:27;;;;;;;5.90;1.17;;;15.80;99.90;;;;;;5042251;28;25057;-69
2021/10/05 10:53:57;;;;;;;4.18;1.20;;;15.80;99.90;;;;;;5048281;28;25125;-68
2021/10/05 10:56:38;;;;;;;3.70;1.30;;;15.80;99.90;;;;;;5035042;28;25087;-70
2021/10/05 10:59:06;;;;;;;5.32;1.40;;;15.70;99.90;;;;;;5030514;28;25130;-70
2021/10/05 11:01:45;;;;;;;4.75;1.17;;;15.70;99.90;;;;;;5047441;28;25151;-70
2021/10/05 11:04:12;;;;;;;5.88;1.35;;;15.60;99.90;;;;;;5043463;28;25101;-70
2021/10/05 11:06:39;;;;;;;7.70;1.42;;;15.60;99.90;;;;;;5049015;28;25080;-70
2021/10/05 11:09:06;;;;;;;5.38;1.10;;;15.60;99.90;;;;;;5048517;28;25168;-70
2021/10/05 11:11:44;;;;;;;5.20;1.23;;;15.60;99.90;;;;;;5012886;28;25073;-70
2021/10/05 11:14:12;;;;;;;5.15;1.00;;;15.60;99.90;;;;;;5043786;28;25073;-72
2021/10/05 11:16:40;;;;;;;4.85;1.38;;;15.80;99.90;;;;;;5026483;28;25135;-70
2021/10/05 11:19:12;;;;;;;5.90;1.38;;;15.70;99.90;;;;;;5049682;28;25121;-69
2021/10/05 11:21:45;;;;;;;5.28;1.42;;;15.70;99.90;;;;;;5031376;28;25084;-69
2021/10/05 11:24:14;;;;;;;5.47;1.20;;;15.60;99.90;;;;;;5028365;28;25142;-69
2021/10/05 11:26:59;;;;;;;2.45;0.98;;;15.60;99.90;;;;;;5029316;28;25133;-68
2021/10/05 11:29:28;;;;;;;3.38;1.27;;;15.50;99.90;;;;;;5046543;28;25068;-72
2021/10/05 11:31:58;;;;;;;2.28;1.45;;;15.40;99.90;;;;;;5025854;28;25107;-71
2021/10/05 11:34:26;;;;;;;7.93;1.70;;;15.40;99.90;;;;;;5026795;28;25065;-72
2021/10/05 11:36:52;;;;;;;3.92;1.50;;;15.30;99.90;;;;;;5045166;28;25122;-72
2021/10/05 11:39:26;;;;;;;4.63;1.17;;;15.30;99.90;;;;;;5044533;28;25079;-69
2021/10/05 11:41:54;;;;;;;2.90;1.27;;;15.20;99.90;;;;;;5045400;28;25069;-70
2021/10/05 11:44:22;;;;;;;4.43;1.23;;;15.00;99.90;;;;;;5046898;28;25137;-69
2021/10/05 11:46:53;;;;;;;6.18;1.40;;;14.90;99.90;;;;;;5033893;28;25136;-69
2021/10/05 11:49:19;;;;;;;7.90;2.38;;;14.80;99.90;;;;;;5051874;28;25060;-69
2021/10/05 11:51:45;;;;;;;9.82;1.95;;;14.70;99.90;;;;;;5053962;28;25069;-69
2021/10/05 11:54:19;;;;;;;4.85;1.58;;;14.60;99.90;;;;;;5053756;28;25072;-68
2021/10/05 11:56:44;;;;;;;5.40;1.67;;;14.50;99.90;;;;;;5029948;28;25096;-68
2021/10/05 11:59:21;;;;;;;3.65;1.38;;;14.50;99.90;;;;;;5054805;28;25084;-69
2021/10/05 12:01:47;;;;;;;8.48;1.70;;;14.40;99.90;;;;;;5059487;28;25126;-69
2021/10/05 12:04:13;;;;;;;8.32;2.15;;;14.30;99.90;;;;;;5064222;28;25060;-69
2021/10/05 12:06:48;;;;;;;4.15;1.48;;;14.30;99.90;;;;;;5057744;28;25056;-70
2021/10/05 12:09:25;;;;;;;3.70;1.40;;;14.20;99.90;;;;;;5052605;28;25092;-70
2021/10/05 12:11:55;;;;;;;4.28;1.55;;;14.10;99.90;;;;;;5050666;28;25066;-70
2021/10/05 12:14:23;;;;;;;7.40;1.45;;;14.00;99.90;;;;;;5034161;28;25058;-70
2021/10/05 12:17:00;;;;;;;9.02;1.50;;;14.00;99.90;;;;;;5049251;28;25060;-73
2021/10/05 12:19:38;;;;;;;6.90;1.70;;;13.90;99.90;;;;;;5033504;28;25105;-72
2021/10/05 12:22:08;;;;;;;7.53;1.77;;;13.90;99.90;;;;;;5044584;28;25057;-70
2021/10/05 12:24:47;;;;;;;5.45;1.50;;;13.90;99.90;;;;;;5047515;28;25146;-69
2021/10/05 12:27:18;;;;;;;4.70;1.48;;;13.90;99.90;;;;;;5049591;28;25107;-70
2021/10/05 12:29:56;;;;;;;5.10;1.63;;;13.80;99.90;;;;;;5031321;28;25055;-71
2021/10/05 12:32:41;;;;;;;7.00;1.60;;;14.00;99.90;;;;;;5050767;28;25125;-71
2021/10/05 12:35:32;;;;;;;5.10;1.60;;;13.90;99.90;;;;;;5044783;28;25064;-71
2021/10/05 12:38:04;;;;;;;7.60;2.20;;;13.90;99.90;;;;;;5047030;28;25125;-69
2021/10/05 12:41:00;;;;;;;3.08;1.58;;;13.80;99.90;;;;;;5049649;28;25079;-70
2021/10/05 12:43:41;;;;;;;4.70;1.60;;;13.80;99.90;;;;;;5040617;28;25074;-70
2021/10/05 12:46:16;;;;;;;5.75;1.98;;;13.80;99.90;;;;;;5048953;28;25073;-70
2021/10/05 12:48:53;;;;;;;6.15;2.20;;;13.80;99.90;;;;;;5025469;28;25067;-71